createdAt,value
2022-11-06T00:00:28.438Z,11.93
2022-11-06T00:02:57.976Z,11.30
2022-11-06T00:05:45.055Z,16.95
2022-11-06T00:08:12.592Z,13.13
2022-11-06T00:10:39.953Z,12.40
2022-11-06T00:13:07.022Z,12.52
2022-11-06T00:15:34.703Z,10.25
2022-11-06T00:18:01.780Z,12.40
2022-11-06T00:20:28.896Z,10.38
2022-11-06T00:22:55.968Z,9.98
2022-11-06T00:25:23.074Z,8.80
2022-11-06T00:27:50.193Z,8.85
2022-11-06T00:30:19.647Z,8.70
2022-11-06T00:32:47.689Z,8.30
2022-11-06T00:35:14.704Z,8.65
2022-11-06T00:37:41.800Z,9.37
2022-11-06T00:40:08.909Z,8.70
2022-11-06T00:42:36.021Z,8.80
2022-11-06T00:45:03.086Z,8.45
2022-11-06T00:47:30.184Z,8.65
2022-11-06T00:49:57.223Z,9.77
2022-11-06T00:52:24.355Z,12.60
2022-11-06T00:54:53.419Z,12.38
2022-11-06T00:57:20.072Z,12.13
2022-11-06T00:59:47.116Z,10.93
2022-11-06T01:02:14.562Z,11.27
2022-11-06T01:04:41.848Z,9.32
2022-11-06T01:07:08.875Z,9.43
2022-11-06T01:09:35.923Z,9.20
2022-11-06T01:12:18.434Z,9.70
2022-11-06T01:14:45.540Z,10.18
2022-11-06T01:17:13.251Z,9.18
2022-11-06T01:19:40.350Z,9.80
2022-11-06T01:22:07.403Z,8.60
2022-11-06T01:24:35.101Z,8.70
2022-11-06T01:29:49.338Z,7.70
2022-11-06T01:32:16.391Z,7.65
2022-11-06T01:34:43.414Z,7.68
2022-11-06T01:37:14.416Z,7.43
2022-11-06T01:39:41.929Z,6.80
2022-11-06T01:42:11.039Z,7.07
2022-11-06T01:44:45.559Z,7.22
2022-11-06T01:47:28.700Z,7.30
2022-11-06T01:49:58.117Z,7.93
2022-11-06T01:52:26.478Z,8.00
2022-11-06T01:54:57.837Z,7.43
2022-11-06T01:57:25.342Z,7.28
2022-11-06T01:59:53.143Z,7.57
2022-11-06T02:02:20.495Z,7.00
2022-11-06T02:04:48.674Z,6.83
2022-11-06T02:07:16.597Z,6.93
2022-11-06T02:09:43.614Z,7.53
2022-11-06T02:12:15.729Z,7.80
2022-11-06T02:15:02.762Z,8.45
2022-11-06T02:17:40.550Z,8.70
2022-11-06T02:20:08.600Z,7.70
2022-11-06T02:22:35.654Z,8.45
2022-11-06T02:25:22.601Z,9.38
2022-11-06T02:27:54.827Z,8.70
2022-11-06T02:30:21.982Z,8.27
2022-11-06T02:32:52.230Z,7.60
2022-11-06T02:35:27.797Z,7.47
2022-11-06T02:37:58.729Z,7.68
2022-11-06T02:40:29.641Z,8.17
2022-11-06T02:42:58.244Z,7.25
2022-11-06T02:45:26.419Z,7.38
2022-11-06T02:47:55.209Z,5.95
2022-11-06T02:50:28.169Z,6.10
2022-11-06T02:52:57.711Z,6.80
2022-11-06T02:55:29.381Z,6.60
2022-11-06T02:57:59.914Z,6.60
2022-11-06T03:00:27.700Z,6.93
2022-11-06T03:02:57.348Z,7.35
2022-11-06T03:05:28.105Z,7.32
2022-11-06T03:08:01.267Z,8.32
2022-11-06T03:10:31.273Z,6.97
2022-11-06T03:13:08.255Z,7.50
2022-11-06T03:15:39.740Z,7.03
2022-11-06T03:18:12.158Z,6.90
2022-11-06T03:20:39.425Z,6.82
2022-11-06T03:23:12.043Z,6.28
2022-11-06T03:25:45.568Z,6.22
2022-11-06T03:28:16.283Z,6.47
2022-11-06T03:30:45.627Z,7.00
2022-11-06T03:33:21.744Z,7.03
2022-11-06T03:35:52.112Z,6.77
2022-11-06T03:38:25.159Z,6.20
2022-11-06T03:40:55.095Z,6.10
2022-11-06T03:43:24.087Z,6.38
2022-11-06T03:45:52.544Z,6.73
2022-11-06T03:48:22.592Z,6.15
2022-11-06T03:51:00.549Z,7.07
2022-11-06T03:53:29.949Z,6.97
2022-11-06T03:56:01.560Z,7.38
2022-11-06T03:58:30.922Z,7.60
2022-11-06T04:00:59.603Z,6.35
2022-11-06T04:03:31.135Z,6.20
2022-11-06T04:06:02.117Z,7.68
2022-11-06T04:08:49.176Z,6.93
2022-11-06T04:11:37.942Z,6.72
2022-11-06T04:14:06.217Z,7.20
2022-11-06T04:16:35.292Z,7.13
2022-11-06T04:19:02.665Z,7.27
2022-11-06T04:21:49.721Z,6.72
2022-11-06T04:24:43.588Z,7.05
2022-11-06T04:27:18.129Z,6.80
2022-11-06T04:30:05.089Z,6.15
2022-11-06T04:32:47.921Z,7.50
2022-11-06T04:35:22.028Z,6.38
2022-11-06T04:38:09.028Z,6.68
2022-11-06T04:40:37.280Z,6.25
2022-11-06T04:43:14.021Z,6.47
2022-11-06T04:45:42.809Z,5.83
2022-11-06T04:48:11.027Z,6.18
2022-11-06T04:50:42.272Z,6.60
2022-11-06T04:53:09.654Z,6.28
2022-11-06T04:55:46.387Z,6.25
2022-11-06T04:58:13.894Z,6.50
2022-11-06T05:00:43.248Z,6.63
2022-11-06T05:03:10.342Z,6.43
2022-11-06T05:05:37.414Z,6.25
2022-11-06T05:08:04.488Z,6.68
2022-11-06T05:10:31.561Z,5.75
2022-11-06T05:12:58.597Z,6.40
2022-11-06T05:15:25.549Z,6.25
2022-11-06T05:17:52.676Z,6.25
2022-11-06T05:20:19.712Z,6.22
2022-11-06T05:23:02.248Z,6.00
2022-11-06T05:25:31.779Z,5.40
2022-11-06T05:27:59.268Z,5.20
2022-11-06T05:30:26.785Z,6.35
2022-11-06T05:32:54.191Z,5.80
2022-11-06T05:35:21.804Z,6.40
2022-11-06T05:37:49.017Z,6.30
2022-11-06T05:40:16.400Z,5.57
2022-11-06T05:42:44.586Z,6.32
2022-11-06T05:45:12.401Z,6.35
2022-11-06T05:47:41.597Z,7.07
2022-11-06T05:50:09.762Z,6.88
2022-11-06T05:52:37.176Z,7.05
2022-11-06T05:55:06.019Z,7.20
2022-11-06T05:57:34.765Z,6.90
2022-11-06T06:00:01.873Z,7.40
2022-11-06T06:02:29.126Z,7.63
2022-11-06T06:04:56.296Z,6.80
2022-11-06T06:07:23.465Z,6.75
2022-11-06T06:09:50.715Z,7.35
2022-11-06T06:12:17.800Z,6.93
2022-11-06T06:14:50.149Z,7.00
2022-11-06T06:17:17.596Z,6.88
2022-11-06T06:19:44.624Z,6.78
2022-11-06T06:22:11.724Z,7.10
2022-11-06T06:24:39.218Z,7.13
2022-11-06T06:27:05.909Z,7.55
2022-11-06T06:29:32.957Z,6.87
2022-11-06T06:32:00.036Z,7.00
2022-11-06T06:34:27.245Z,7.15
2022-11-06T06:36:54.712Z,7.07
2022-11-06T06:39:22.119Z,7.20
2022-11-06T06:41:49.507Z,6.75
2022-11-06T06:44:16.805Z,7.30
2022-11-06T06:46:43.840Z,7.15
2022-11-06T06:49:10.964Z,7.28
2022-11-06T06:51:38.036Z,7.35
2022-11-06T06:54:05.084Z,7.40
2022-11-06T06:56:32.239Z,6.90
2022-11-06T06:58:59.299Z,7.00
2022-11-06T07:01:26.552Z,8.38
2022-11-06T07:03:53.767Z,7.07
2022-11-06T07:06:20.972Z,7.07
2022-11-06T07:08:48.037Z,7.93
2022-11-06T07:11:15.272Z,8.60
2022-11-06T07:13:42.291Z,8.68
2022-11-06T07:16:10.512Z,7.75
2022-11-06T07:18:39.731Z,7.85
2022-11-06T07:21:07.847Z,7.75
2022-11-06T07:23:35.494Z,7.10
2022-11-06T07:26:02.658Z,8.25
2022-11-06T07:28:29.740Z,8.20
2022-11-06T07:31:00.713Z,9.00
2022-11-06T07:33:27.782Z,8.63
2022-11-06T07:35:54.911Z,9.60
2022-11-06T07:38:21.959Z,8.93
2022-11-06T07:40:49.042Z,8.77
2022-11-06T07:43:16.118Z,7.30
2022-11-06T07:45:42.828Z,8.55
2022-11-06T07:48:09.936Z,8.63
2022-11-06T07:50:37.014Z,8.25
2022-11-06T07:53:04.582Z,8.50
2022-11-06T07:55:31.679Z,8.40
2022-11-06T07:57:59.565Z,9.57
2022-11-06T08:00:26.910Z,8.57
2022-11-06T08:02:54.309Z,7.78
2022-11-06T08:05:21.443Z,7.88
2022-11-06T08:07:48.510Z,8.05
2022-11-06T08:10:15.838Z,7.93
2022-11-06T08:12:42.905Z,7.60
2022-11-06T08:15:10.175Z,8.25
2022-11-06T08:17:37.551Z,7.68
2022-11-06T08:20:04.860Z,7.93
2022-11-06T08:22:31.950Z,7.88
2022-11-06T08:24:59.086Z,7.43
2022-11-06T08:27:26.213Z,7.73
2022-11-06T08:29:53.338Z,7.90
2022-11-06T08:32:20.366Z,7.73
2022-11-06T08:34:47.441Z,7.55
2022-11-06T08:37:14.086Z,7.00
2022-11-06T08:39:41.151Z,7.18
2022-11-06T08:42:08.330Z,7.30
2022-11-06T08:44:35.449Z,7.30
2022-11-06T08:47:02.567Z,7.35
2022-11-06T08:49:29.637Z,7.20
2022-11-06T08:51:56.731Z,7.97
2022-11-06T08:54:23.798Z,7.30
2022-11-06T08:56:50.810Z,7.60
2022-11-06T08:59:17.890Z,9.40
2022-11-06T09:01:44.995Z,9.83
2022-11-06T09:04:12.343Z,11.50
2022-11-06T09:06:39.385Z,10.20
2022-11-06T09:09:06.464Z,9.75
2022-11-06T09:11:33.780Z,8.35
2022-11-06T09:14:00.843Z,8.30
2022-11-06T09:16:27.944Z,8.57
2022-11-06T09:18:55.272Z,7.72
2022-11-06T09:21:22.955Z,8.52
2022-11-06T09:23:50.455Z,8.00
2022-11-06T09:26:17.604Z,13.63
2022-11-06T09:28:44.692Z,10.02
2022-11-06T09:31:11.780Z,8.90
2022-11-06T09:33:38.872Z,8.70
2022-11-06T09:36:06.781Z,9.02
2022-11-06T09:38:33.874Z,8.10
2022-11-06T09:41:02.599Z,10.07
2022-11-06T09:44:04.534Z,9.43
2022-11-06T09:46:35.032Z,9.82
2022-11-06T09:49:02.071Z,12.57
2022-11-06T09:51:30.179Z,20.67
2022-11-06T09:54:02.508Z,9.93
2022-11-06T09:56:31.441Z,12.18
2022-11-06T09:58:58.964Z,10.43
2022-11-06T10:01:29.656Z,10.68
2022-11-06T10:04:00.964Z,12.27
2022-11-06T10:06:28.963Z,13.77
2022-11-06T10:08:59.412Z,13.77
2022-11-06T10:11:26.472Z,12.37
2022-11-06T10:13:59.092Z,12.60
2022-11-06T10:16:32.206Z,12.20
2022-11-06T10:19:09.839Z,11.23
2022-11-06T10:21:40.103Z,10.93
2022-11-06T10:24:20.561Z,10.18
2022-11-06T10:26:54.544Z,10.52
2022-11-06T10:29:47.807Z,10.27
2022-11-06T10:32:24.712Z,11.27
2022-11-06T10:34:55.123Z,10.02
2022-11-06T10:37:24.555Z,10.05
2022-11-06T10:39:51.831Z,9.20
2022-11-06T10:42:18.888Z,9.98
2022-11-06T10:44:50.468Z,15.75
2022-11-06T10:47:21.960Z,10.38
2022-11-06T10:49:51.064Z,10.63
2022-11-06T10:52:19.156Z,11.05
2022-11-06T10:54:54.955Z,10.15
2022-11-06T10:57:22.057Z,9.77
2022-11-06T10:59:49.564Z,10.40
2022-11-06T11:02:26.936Z,11.02
2022-11-06T11:04:57.706Z,9.65
2022-11-06T11:07:26.302Z,10.70
2022-11-06T11:09:53.412Z,10.43
2022-11-06T11:12:23.584Z,11.30
2022-11-06T11:15:06.570Z,10.48
2022-11-06T11:17:33.687Z,11.05
2022-11-06T11:20:02.223Z,12.27
2022-11-06T11:22:33.161Z,11.85
2022-11-06T11:25:02.853Z,11.85
2022-11-06T11:27:31.242Z,11.75
2022-11-06T11:29:58.584Z,11.38
2022-11-06T11:32:29.577Z,11.10
2022-11-06T11:34:57.643Z,11.15
2022-11-06T11:37:33.243Z,11.25
2022-11-06T11:40:20.981Z,11.43
2022-11-06T11:42:48.463Z,12.90
2022-11-06T11:45:17.302Z,12.43
2022-11-06T11:47:46.806Z,11.93
2022-11-06T11:50:17.264Z,11.70
2022-11-06T11:52:46.403Z,11.90
2022-11-06T11:55:22.672Z,14.07
2022-11-06T11:57:51.902Z,13.73
2022-11-06T12:00:20.480Z,13.68
2022-11-06T12:03:06.268Z,12.82
2022-11-06T12:05:35.844Z,12.75
2022-11-06T12:08:03.209Z,13.10
2022-11-06T12:10:33.467Z,13.25
2022-11-06T12:13:01.877Z,12.98
2022-11-06T12:15:33.363Z,12.68
2022-11-06T12:18:02.520Z,11.95
2022-11-06T12:20:49.488Z,11.73
2022-11-06T12:23:20.586Z,11.30
2022-11-06T12:25:52.366Z,11.85
2022-11-06T12:28:20.339Z,12.63
2022-11-06T12:30:49.693Z,13.88
2022-11-06T12:33:18.182Z,12.57
2022-11-06T12:35:50.684Z,12.98
2022-11-06T12:38:25.261Z,13.85
2022-11-06T12:40:58.705Z,13.88
2022-11-06T12:43:33.182Z,12.27
2022-11-06T12:46:07.793Z,11.57
2022-11-06T12:48:50.485Z,12.68
2022-11-06T12:51:20.769Z,12.70
2022-11-06T12:53:47.828Z,13.35
2022-11-06T12:56:21.553Z,12.88
2022-11-06T12:58:58.180Z,13.33
2022-11-06T13:01:25.302Z,12.27
2022-11-06T13:03:59.984Z,11.23
2022-11-06T13:06:37.177Z,11.60
2022-11-06T13:09:07.301Z,11.52
2022-11-06T13:11:38.813Z,11.35
2022-11-06T13:14:11.240Z,10.45
2022-11-06T13:16:44.405Z,10.63
2022-11-06T13:19:16.252Z,10.98
2022-11-06T13:22:02.408Z,11.68
2022-11-06T13:24:34.425Z,10.87
2022-11-06T13:27:09.466Z,10.70
2022-11-06T13:29:36.993Z,11.63
2022-11-06T13:32:05.968Z,11.98
2022-11-06T13:34:35.594Z,11.43
2022-11-06T13:37:03.177Z,11.67
2022-11-06T13:39:30.217Z,11.25
2022-11-06T13:41:57.337Z,10.07
2022-11-06T13:44:25.016Z,12.15
2022-11-06T13:46:52.696Z,11.70
2022-11-06T13:49:20.779Z,9.85
2022-11-06T13:51:47.825Z,11.50
2022-11-06T13:54:30.480Z,10.63
2022-11-06T13:57:08.342Z,10.35
2022-11-06T13:59:55.964Z,10.63
2022-11-06T14:02:39.933Z,9.70
2022-11-06T14:05:10.316Z,10.05
2022-11-06T14:07:37.900Z,12.73
2022-11-06T14:10:05.352Z,10.98
2022-11-06T14:12:32.419Z,10.50
2022-11-06T14:15:19.387Z,9.73
2022-11-06T14:18:02.408Z,9.48
2022-11-06T14:20:44.697Z,9.27
2022-11-06T14:23:31.746Z,9.57
2022-11-06T14:26:03.459Z,9.52
2022-11-06T14:28:33.603Z,10.02
2022-11-06T14:31:19.857Z,10.80
2022-11-06T14:33:49.421Z,9.77
2022-11-06T14:36:36.468Z,10.80
2022-11-06T14:39:04.200Z,10.38
2022-11-06T14:41:39.908Z,11.25
2022-11-06T14:44:17.451Z,10.50
2022-11-06T14:46:53.061Z,10.13
2022-11-06T14:49:25.937Z,11.45
2022-11-06T14:52:13.011Z,10.52
2022-11-06T14:54:41.477Z,10.77
2022-11-06T14:57:12.490Z,10.25
2022-11-06T14:59:41.215Z,9.90
2022-11-06T15:02:09.510Z,9.63
2022-11-06T15:04:37.985Z,10.70
2022-11-06T15:07:09.784Z,9.90
2022-11-06T15:09:37.848Z,10.45
2022-11-06T15:12:06.465Z,11.05
2022-11-06T15:14:33.501Z,10.57
2022-11-06T15:17:03.197Z,10.45
2022-11-06T15:19:50.142Z,11.30
2022-11-06T15:22:21.725Z,10.70
2022-11-06T15:24:52.701Z,10.48
2022-11-06T15:27:20.974Z,10.30
2022-11-06T15:29:50.420Z,10.82
2022-11-06T15:32:20.044Z,10.68
2022-11-06T15:34:51.028Z,10.70
2022-11-06T15:37:22.206Z,11.45
2022-11-06T15:39:49.153Z,11.00
2022-11-06T15:42:18.460Z,11.43
2022-11-06T15:44:46.635Z,10.63
2022-11-06T15:47:32.995Z,13.45
2022-11-06T15:50:20.003Z,13.00
2022-11-06T15:52:47.988Z,11.80
2022-11-06T15:55:27.148Z,11.88
2022-11-06T15:57:54.373Z,12.48
2022-11-06T16:00:23.575Z,12.68
2022-11-06T16:02:50.692Z,12.88
2022-11-06T16:05:18.580Z,12.00
2022-11-06T16:07:46.670Z,11.85
2022-11-06T16:10:18.129Z,12.95
2022-11-06T16:12:46.148Z,12.15
2022-11-06T16:15:33.107Z,12.75
2022-11-06T16:18:07.713Z,14.85
2022-11-06T16:20:34.659Z,14.35
2022-11-06T16:23:05.403Z,14.98
2022-11-06T16:25:32.356Z,17.57
2022-11-06T16:27:59.448Z,16.42
2022-11-06T16:30:26.595Z,17.15
2022-11-06T16:32:53.813Z,16.30
2022-11-06T16:35:37.531Z,15.25
2022-11-06T16:38:40.596Z,14.60
2022-11-06T16:41:08.559Z,13.10
2022-11-06T16:43:35.809Z,13.80
2022-11-06T16:46:07.705Z,13.35
2022-11-06T16:48:35.699Z,16.83
2022-11-06T16:51:04.666Z,14.48
2022-11-06T16:53:33.200Z,17.25
2022-11-06T16:56:01.592Z,18.63
2022-11-06T16:58:29.611Z,15.98
2022-11-06T17:00:58.925Z,16.35
2022-11-06T17:03:27.529Z,17.13
2022-11-06T17:05:56.502Z,18.17
2022-11-06T17:08:25.631Z,20.85
2022-11-06T17:10:54.445Z,20.50
2022-11-06T17:13:22.758Z,19.70
2022-11-06T17:15:55.402Z,16.98
2022-11-06T17:18:24.206Z,14.23
2022-11-06T17:20:53.010Z,18.33
2022-11-06T17:23:20.311Z,17.25
2022-11-06T17:25:48.182Z,16.75
2022-11-06T17:28:15.293Z,15.20
2022-11-06T17:30:42.411Z,13.07
2022-11-06T17:33:09.419Z,18.93
2022-11-06T17:35:36.513Z,22.02
2022-11-06T17:38:07.390Z,24.75
2022-11-06T17:40:35.131Z,26.42
2022-11-06T17:43:02.162Z,22.77
2022-11-06T17:45:29.242Z,21.52
2022-11-06T17:47:56.336Z,23.45
2022-11-06T17:50:23.394Z,24.50
2022-11-06T17:52:50.442Z,23.88
2022-11-06T17:55:17.590Z,21.48
2022-11-06T17:57:44.619Z,22.65
2022-11-06T18:00:12.833Z,21.83
2022-11-06T18:02:59.910Z,22.08
2022-11-06T18:05:26.978Z,20.40
2022-11-06T18:07:54.050Z,17.40
2022-11-06T18:10:23.743Z,17.42
2022-11-06T18:12:53.186Z,17.08
2022-11-06T18:15:20.237Z,29.65
2022-11-06T18:17:47.286Z,25.23
2022-11-06T18:20:14.220Z,24.77
2022-11-06T18:22:42.090Z,25.02
2022-11-06T18:25:09.469Z,22.52
2022-11-06T18:27:36.689Z,21.03
2022-11-06T18:30:03.870Z,26.30
2022-11-06T18:32:31.033Z,27.25
2022-11-06T18:34:58.317Z,24.88
2022-11-06T18:37:25.917Z,27.25
2022-11-06T18:39:53.117Z,22.83
2022-11-06T18:42:20.753Z,23.27
2022-11-06T18:44:47.950Z,17.98
2022-11-06T18:47:15.437Z,16.67
2022-11-06T18:49:43.073Z,16.25
2022-11-06T18:52:10.431Z,16.93
2022-11-06T18:54:37.793Z,18.17
2022-11-06T18:57:04.861Z,18.23
2022-11-06T18:59:31.962Z,18.08
2022-11-06T19:01:59.107Z,20.13
2022-11-06T19:04:27.840Z,20.92
2022-11-06T19:06:55.157Z,20.65
2022-11-06T19:09:22.329Z,20.88
2022-11-06T19:11:50.822Z,22.13
2022-11-06T19:14:18.013Z,20.85
2022-11-06T19:16:45.039Z,21.38
2022-11-06T19:19:12.373Z,20.17
2022-11-06T19:21:42.734Z,22.38
2022-11-06T19:24:09.802Z,20.95
2022-11-06T19:26:36.968Z,20.00
2022-11-06T19:29:05.490Z,21.33
2022-11-06T19:31:33.380Z,21.73
2022-11-06T19:34:01.184Z,22.08
2022-11-06T19:36:28.780Z,21.67
2022-11-06T19:38:58.268Z,24.00
2022-11-06T19:41:25.839Z,23.27
2022-11-06T19:43:53.117Z,22.17
2022-11-06T19:46:25.683Z,21.87
2022-11-06T19:48:55.537Z,21.67
2022-11-06T19:51:22.633Z,21.37
2022-11-06T19:53:53.030Z,23.27
2022-11-06T19:56:20.474Z,23.40
2022-11-06T19:58:48.509Z,22.63
2022-11-06T20:01:15.718Z,22.95
2022-11-06T20:03:43.177Z,26.77
2022-11-06T20:06:10.236Z,23.05
2022-11-06T20:08:38.784Z,23.73
2022-11-06T20:11:12.186Z,23.02
2022-11-06T20:13:39.496Z,21.17
2022-11-06T20:16:08.122Z,21.10
2022-11-06T20:18:36.415Z,20.65
2022-11-06T20:21:04.375Z,20.88
2022-11-06T20:23:31.710Z,28.38
2022-11-06T20:25:58.928Z,28.25
2022-11-06T20:28:26.056Z,24.02
2022-11-06T20:30:53.309Z,24.08
2022-11-06T20:33:20.446Z,22.42
2022-11-06T20:35:47.547Z,21.50
2022-11-06T20:38:14.847Z,21.00
2022-11-06T20:40:42.407Z,20.02
2022-11-06T20:43:10.071Z,23.90
2022-11-06T20:45:37.439Z,26.02
2022-11-06T20:48:05.342Z,19.85
2022-11-06T20:50:32.758Z,20.35
2022-11-06T20:53:00.263Z,20.83
2022-11-06T20:55:27.354Z,20.95
2022-11-06T20:57:54.403Z,19.45
2022-11-06T21:00:21.670Z,20.30
2022-11-06T21:02:49.003Z,20.45
2022-11-06T21:05:16.275Z,19.60
2022-11-06T21:07:43.405Z,19.25
2022-11-06T21:10:11.945Z,19.10
2022-11-06T21:12:39.085Z,18.70
2022-11-06T21:15:06.479Z,19.70
2022-11-06T21:17:34.457Z,18.58
2022-11-06T21:20:01.521Z,21.25
2022-11-06T21:22:28.568Z,21.33
2022-11-06T21:24:55.657Z,21.75
2022-11-06T21:27:22.690Z,22.60
2022-11-06T21:29:49.796Z,21.70
2022-11-06T21:32:16.848Z,20.67
2022-11-06T21:34:43.910Z,21.30
2022-11-06T21:37:10.985Z,20.88
2022-11-06T21:39:38.180Z,19.95
2022-11-06T21:42:06.162Z,20.10
2022-11-06T21:44:33.241Z,20.27
2022-11-06T21:47:00.318Z,20.75
2022-11-06T21:49:27.415Z,20.40
2022-11-06T21:52:14.393Z,20.77
2022-11-06T21:55:01.354Z,20.48
2022-11-06T21:57:28.412Z,21.25
2022-11-06T21:59:55.449Z,20.50
2022-11-06T22:02:22.575Z,20.33
2022-11-06T22:04:49.729Z,19.40
2022-11-06T22:07:16.342Z,18.25
2022-11-06T22:09:43.409Z,18.55
2022-11-06T22:12:10.465Z,19.73
2022-11-06T22:14:37.528Z,19.10
2022-11-06T22:17:04.546Z,13.77
2022-11-06T22:19:31.621Z,12.73
2022-11-06T22:21:58.680Z,12.45
2022-11-06T22:24:25.725Z,12.77
2022-11-06T22:26:55.284Z,13.20
2022-11-06T22:29:22.381Z,12.93
2022-11-06T22:31:49.485Z,12.55
2022-11-06T22:34:16.152Z,12.57
2022-11-06T22:36:43.511Z,12.48
2022-11-06T22:39:11.054Z,12.35
2022-11-06T22:41:38.580Z,11.93
2022-11-06T22:44:06.168Z,18.05
2022-11-06T22:46:33.638Z,18.48
2022-11-06T22:49:00.800Z,19.88
2022-11-06T22:51:29.745Z,18.50
2022-11-06T22:53:56.977Z,17.80
2022-11-06T22:56:24.713Z,18.98
2022-11-06T22:58:55.959Z,18.65
2022-11-06T23:01:23.786Z,17.65
2022-11-06T23:03:50.998Z,18.13
2022-11-06T23:06:17.994Z,17.03
2022-11-06T23:08:47.162Z,17.27
2022-11-06T23:11:15.078Z,17.73
2022-11-06T23:13:43.761Z,18.38
2022-11-06T23:16:12.925Z,18.60
2022-11-06T23:18:40.286Z,17.90
2022-11-06T23:21:15.108Z,18.13
2022-11-06T23:23:42.646Z,19.75
2022-11-06T23:26:09.593Z,19.27
2022-11-06T23:28:36.667Z,18.60
2022-11-06T23:31:07.900Z,18.08
2022-11-06T23:33:35.380Z,23.77
2022-11-06T23:36:10.579Z,21.15
2022-11-06T23:38:37.853Z,19.27
2022-11-06T23:41:25.558Z,16.85
2022-11-06T23:43:52.708Z,15.25
2022-11-06T23:46:20.487Z,16.45
2022-11-06T23:48:47.605Z,21.73
2022-11-06T23:51:14.691Z,19.52
2022-11-06T23:53:41.750Z,17.17
2022-11-06T23:56:10.446Z,18.02
2022-11-06T23:58:37.724Z,16.93
